메인 페이지
METAR-TAF:

METAR-TAF

공항 :

Stennis International Airport

Bay St. Louis, 미시시피, 미국

위도: 30-22-04N, 경도: 089-27-17W, 고도: 7m

현재 날씨관측

예보는 25분 전, 14:26시(UTC)에 발표되었습니다.
북북서8kt
온도 25°C
습도 83%
기압 1017 hPa
시정: 11.3km
고도 1600ft 상공 구름 보통
고도 4200ft 상공 구름 많음

METAR: KHSA 291426Z 34008KT 7SM SCT016 BKN042 25/22 A3004

시각: 09:51 (14:51 UTC)


TAF: 누락

4,000개 이상의 공항 관측 자료 및 예보 (METAR 및 TAF 보고).

지도상에서 검색 가능한 기상관측소가 노란 점과 빨간 점으로 표시되어 있습니다.

기상관측소 명을 보려면 표시 위로 마우스를 이동하세요.

날씨 관측과 예보를 보려면 클릭하세요.

지도 변경 : 확대하려면 엑스 표시가 있는 녹색 버튼, 축소하려면 빼기 표시가 있는 녹색 버튼, 다음 페이지의 지도를 보려면 녹색 화살표를 클릭하세요.


METAR-TAF: